sensor_id;sensor_type;location;lat;lon;timestamp;pressure;altitude;pressure_sealevel;temperature;humidity
83716;BME280;73698;51.138;6.950;2024-03-02T00:01:58;99623.22;;;6.90;70.85
83716;BME280;73698;51.138;6.950;2024-03-02T00:04:24;99626.88;;;6.89;71.19
83716;BME280;73698;51.138;6.950;2024-03-02T00:06:52;99630.50;;;6.88;70.33
83716;BME280;73698;51.138;6.950;2024-03-02T00:09:18;99627.94;;;6.87;70.80
83716;BME280;73698;51.138;6.950;2024-03-02T00:11:43;99636.78;;;6.87;70.44
83716;BME280;73698;51.138;6.950;2024-03-02T00:14:09;99622.38;;;6.90;70.89
83716;BME280;73698;51.138;6.950;2024-03-02T00:16:35;99613.38;;;6.91;70.78
83716;BME280;73698;51.138;6.950;2024-03-02T00:19:05;99617.88;;;6.90;71.89
83716;BME280;73698;51.138;6.950;2024-03-02T00:21:31;99617.75;;;6.92;71.26
83716;BME280;73698;51.138;6.950;2024-03-02T00:23:57;99626.41;;;6.95;70.25
83716;BME280;73698;51.138;6.950;2024-03-02T00:26:22;99619.28;;;6.96;71.00
83716;BME280;73698;51.138;6.950;2024-03-02T00:28:48;99614.78;;;6.96;71.13
83716;BME280;73698;51.138;6.950;2024-03-02T00:31:15;99610.94;;;7.00;70.31
83716;BME280;73698;51.138;6.950;2024-03-02T00:33:45;99614.25;;;7.04;70.48
83716;BME280;73698;51.138;6.950;2024-03-02T00:36:13;99603.44;;;7.05;70.85
83716;BME280;73698;51.138;6.950;2024-03-02T00:38:49;99590.84;;;7.07;70.73
83716;BME280;73698;51.138;6.950;2024-03-02T00:41:27;99586.97;;;7.12;70.17
83716;BME280;73698;51.138;6.950;2024-03-02T00:44:06;99588.34;;;7.17;69.99
83716;BME280;73698;51.138;6.950;2024-03-02T00:46:34;99592.72;;;7.18;70.73
83716;BME280;73698;51.138;6.950;2024-03-02T00:51:39;99586.50;;;7.30;69.85
83716;BME280;73698;51.138;6.950;2024-03-02T00:54:08;99578.88;;;7.37;69.80
83716;BME280;73698;51.138;6.950;2024-03-02T00:56:35;99579.41;;;7.42;68.33
83716;BME280;73698;51.138;6.950;2024-03-02T00:59:00;99584.84;;;7.41;69.56
83716;BME280;73698;51.138;6.950;2024-03-02T01:01:26;99583.03;;;7.41;69.19
83716;BME280;73698;51.138;6.950;2024-03-02T01:03:52;99586.56;;;7.42;69.27
83716;BME280;73698;51.138;6.950;2024-03-02T01:06:17;99592.66;;;7.44;68.63
83716;BME280;73698;51.138;6.950;2024-03-02T01:08:43;99595.34;;;7.44;69.36
83716;BME280;73698;51.138;6.950;2024-03-02T01:11:08;99593.50;;;7.44;69.00
83716;BME280;73698;51.138;6.950;2024-03-02T01:13:34;99590.63;;;7.47;68.70
83716;BME280;73698;51.138;6.950;2024-03-02T01:15:59;99586.13;;;7.48;68.82
83716;BME280;73698;51.138;6.950;2024-03-02T01:18:25;99583.22;;;7.51;68.47
83716;BME280;73698;51.138;6.950;2024-03-02T01:20:51;99588.44;;;7.52;68.36
83716;BME280;73698;51.138;6.950;2024-03-02T01:23:20;99586.75;;;7.51;68.49
83716;BME280;73698;51.138;6.950;2024-03-02T01:25:46;99589.56;;;7.50;68.56
83716;BME280;73698;51.138;6.950;2024-03-02T01:28:12;99580.78;;;7.48;67.83
83716;BME280;73698;51.138;6.950;2024-03-02T01:30:38;99579.16;;;7.45;68.18
83716;BME280;73698;51.138;6.950;2024-03-02T01:33:03;99586.81;;;7.39;68.74
83716;BME280;73698;51.138;6.950;2024-03-02T01:35:31;99587.09;;;7.34;68.52
83716;BME280;73698;51.138;6.950;2024-03-02T01:37:56;99579.56;;;7.28;68.60
83716;BME280;73698;51.138;6.950;2024-03-02T01:40:21;99586.31;;;7.21;69.20
83716;BME280;73698;51.138;6.950;2024-03-02T01:42:48;99586.44;;;7.19;68.98
83716;BME280;73698;51.138;6.950;2024-03-02T01:45:14;99580.84;;;7.22;68.80
83716;BME280;73698;51.138;6.950;2024-03-02T01:47:40;99579.75;;;7.25;69.10
83716;BME280;73698;51.138;6.950;2024-03-02T01:50:05;99581.38;;;7.27;68.95
83716;BME280;73698;51.138;6.950;2024-03-02T01:52:31;99571.06;;;7.34;68.51
83716;BME280;73698;51.138;6.950;2024-03-02T01:54:56;99577.59;;;7.43;68.76
83716;BME280;73698;51.138;6.950;2024-03-02T01:57:22;99565.34;;;7.51;68.07
83716;BME280;73698;51.138;6.950;2024-03-02T01:59:48;99573.88;;;7.56;67.61
83716;BME280;73698;51.138;6.950;2024-03-02T02:02:14;99563.59;;;7.63;67.73
83716;BME280;73698;51.138;6.950;2024-03-02T02:04:40;99570.19;;;7.70;66.87
83716;BME280;73698;51.138;6.950;2024-03-02T02:07:06;99572.75;;;7.72;67.51
83716;BME280;73698;51.138;6.950;2024-03-02T02:09:32;99569.00;;;7.74;66.71
83716;BME280;73698;51.138;6.950;2024-03-02T02:11:57;99579.25;;;7.80;66.72
83716;BME280;73698;51.138;6.950;2024-03-02T02:14:23;99569.91;;;7.86;66.94
83716;BME280;73698;51.138;6.950;2024-03-02T02:16:48;99569.06;;;7.86;66.83
83716;BME280;73698;51.138;6.950;2024-03-02T02:19:14;99563.56;;;7.87;66.38
83716;BME280;73698;51.138;6.950;2024-03-02T02:21:42;99555.19;;;7.92;66.12
83716;BME280;73698;51.138;6.950;2024-03-02T02:24:08;99567.16;;;7.99;65.24
83716;BME280;73698;51.138;6.950;2024-03-02T02:26:33;99561.06;;;7.97;65.87
83716;BME280;73698;51.138;6.950;2024-03-02T02:28:59;99564.47;;;7.99;65.47
83716;BME280;73698;51.138;6.950;2024-03-02T02:31:24;99561.34;;;8.05;64.75
83716;BME280;73698;51.138;6.950;2024-03-02T02:33:49;99567.41;;;8.07;65.05
83716;BME280;73698;51.138;6.950;2024-03-02T02:36:15;99564.50;;;8.10;64.48
83716;BME280;73698;51.138;6.950;2024-03-02T02:38:43;99565.34;;;8.11;65.23
83716;BME280;73698;51.138;6.950;2024-03-02T02:41:09;99562.81;;;8.09;65.26
83716;BME280;73698;51.138;6.950;2024-03-02T02:43:35;99566.34;;;8.10;65.34
83716;BME280;73698;51.138;6.950;2024-03-02T02:46:00;99562.81;;;8.09;64.73
83716;BME280;73698;51.138;6.950;2024-03-02T02:48:26;99568.91;;;8.11;65.71
83716;BME280;73698;51.138;6.950;2024-03-02T02:50:51;99556.47;;;8.10;65.24
83716;BME280;73698;51.138;6.950;2024-03-02T02:53:16;99548.44;;;8.10;65.25
83716;BME280;73698;51.138;6.950;2024-03-02T02:55:42;99553.72;;;8.12;64.73
83716;BME280;73698;51.138;6.950;2024-03-02T02:58:11;99548.09;;;8.15;65.18
83716;BME280;73698;51.138;6.950;2024-03-02T03:00:36;99559.91;;;8.12;64.58
83716;BME280;73698;51.138;6.950;2024-03-02T03:03:02;99561.75;;;8.12;64.75
83716;BME280;73698;51.138;6.950;2024-03-02T03:05:27;99547.38;;;8.13;64.51
83716;BME280;73698;51.138;6.950;2024-03-02T03:07:53;99549.19;;;8.12;64.67
83716;BME280;73698;51.138;6.950;2024-03-02T03:10:18;99551.13;;;8.10;64.80
83716;BME280;73698;51.138;6.950;2024-03-02T03:12:47;99545.78;;;8.10;64.71
83716;BME280;73698;51.138;6.950;2024-03-02T03:15:12;99543.84;;;8.12;64.69
83716;BME280;73698;51.138;6.950;2024-03-02T03:17:38;99546.38;;;8.14;63.86
83716;BME280;73698;51.138;6.950;2024-03-02T03:20:04;99546.28;;;8.15;64.23
83716;BME280;73698;51.138;6.950;2024-03-02T03:22:31;99557.09;;;8.14;64.34
83716;BME280;73698;51.138;6.950;2024-03-02T03:24:57;99562.69;;;8.11;64.67
83716;BME280;73698;51.138;6.950;2024-03-02T03:27:22;99570.97;;;8.07;64.75
83716;BME280;73698;51.138;6.950;2024-03-02T03:29:48;99566.81;;;8.03;65.28
83716;BME280;73698;51.138;6.950;2024-03-02T03:32:13;99574.09;;;8.01;65.81
83716;BME280;73698;51.138;6.950;2024-03-02T03:34:39;99571.44;;;8.01;64.96
83716;BME280;73698;51.138;6.950;2024-03-02T03:37:04;99575.09;;;8.00;65.73
83716;BME280;73698;51.138;6.950;2024-03-02T03:39:29;99567.06;;;8.00;64.83
83716;BME280;73698;51.138;6.950;2024-03-02T03:41:55;99573.47;;;7.98;65.24
83716;BME280;73698;51.138;6.950;2024-03-02T03:44:20;99576.16;;;7.98;65.53
83716;BME280;73698;51.138;6.950;2024-03-02T03:46:46;99566.19;;;8.00;66.07
83716;BME280;73698;51.138;6.950;2024-03-02T03:49:11;99575.44;;;7.96;65.27
83716;BME280;73698;51.138;6.950;2024-03-02T03:51:36;99574.06;;;7.90;65.49
83716;BME280;73698;51.138;6.950;2024-03-02T03:54:02;99575.38;;;7.85;65.94
83716;BME280;73698;51.138;6.950;2024-03-02T03:56:27;99580.09;;;7.81;65.55
83716;BME280;73698;51.138;6.950;2024-03-02T03:58:53;99569.00;;;7.74;65.81
83716;BME280;73698;51.138;6.950;2024-03-02T04:01:18;99570.06;;;7.72;66.27
83716;BME280;73698;51.138;6.950;2024-03-02T04:03:44;99566.66;;;7.70;65.90
83716;BME280;73698;51.138;6.950;2024-03-02T04:06:10;99572.25;;;7.67;66.02
83716;BME280;73698;51.138;6.950;2024-03-02T04:08:35;99572.47;;;7.64;66.17
83716;BME280;73698;51.138;6.950;2024-03-02T04:11:00;99581.69;;;7.59;66.37
83716;BME280;73698;51.138;6.950;2024-03-02T04:13:28;99581.28;;;7.53;66.55
83716;BME280;73698;51.138;6.950;2024-03-02T04:15:53;99593.41;;;7.46;67.42
83716;BME280;73698;51.138;6.950;2024-03-02T04:18:19;99591.06;;;7.41;67.79
83716;BME280;73698;51.138;6.950;2024-03-02T04:20:44;99593.09;;;7.38;67.17
83716;BME280;73698;51.138;6.950;2024-03-02T04:23:09;99595.88;;;7.36;67.54
83716;BME280;73698;51.138;6.950;2024-03-02T04:25:35;99580.19;;;7.31;67.15
83716;BME280;73698;51.138;6.950;2024-03-02T04:28:01;99587.56;;;7.28;67.07
83716;BME280;73698;51.138;6.950;2024-03-02T04:30:26;99594.84;;;7.26;67.94
83716;BME280;73698;51.138;6.950;2024-03-02T04:32:52;99597.13;;;7.19;67.95
83716;BME280;73698;51.138;6.950;2024-03-02T04:35:17;99599.38;;;7.13;67.53
83716;BME280;73698;51.138;6.950;2024-03-02T04:37:42;99608.91;;;7.04;68.09
83716;BME280;73698;51.138;6.950;2024-03-02T04:40:08;99622.06;;;6.94;68.66
83716;BME280;73698;51.138;6.950;2024-03-02T04:42:35;99611.03;;;6.86;69.38
83716;BME280;73698;51.138;6.950;2024-03-02T04:45:00;99615.09;;;6.79;69.71
83716;BME280;73698;51.138;6.950;2024-03-02T04:47:26;99610.22;;;6.73;70.64
83716;BME280;73698;51.138;6.950;2024-03-02T04:49:51;99614.78;;;6.71;70.03
83716;BME280;73698;51.138;6.950;2024-03-02T04:52:17;99617.13;;;6.75;69.84
83716;BME280;73698;51.138;6.950;2024-03-02T04:54:42;99612.63;;;6.76;70.08
83716;BME280;73698;51.138;6.950;2024-03-02T04:57:26;99608.16;;;6.76;69.65
83716;BME280;73698;51.138;6.950;2024-03-02T04:59:52;99610.94;;;6.75;70.14
83716;BME280;73698;51.138;6.950;2024-03-02T05:02:17;99613.81;;;6.72;69.76
83716;BME280;73698;51.138;6.950;2024-03-02T05:04:42;99611.16;;;6.72;69.94
83716;BME280;73698;51.138;6.950;2024-03-02T05:07:08;99612.88;;;6.73;70.36
83716;BME280;73698;51.138;6.950;2024-03-02T05:09:33;99607.84;;;6.68;69.45
83716;BME280;73698;51.138;6.950;2024-03-02T05:11:58;99613.19;;;6.68;69.95
83716;BME280;73698;51.138;6.950;2024-03-02T05:15:00;99614.03;;;6.69;70.04
83716;BME280;73698;51.138;6.950;2024-03-02T05:17:25;99608.59;;;6.70;69.65
83716;BME280;73698;51.138;6.950;2024-03-02T05:19:51;99613.94;;;6.70;70.15
83716;BME280;73698;51.138;6.950;2024-03-02T05:22:16;99603.13;;;6.72;69.51
83716;BME280;73698;51.138;6.950;2024-03-02T05:24:42;99605.06;;;6.70;69.73
83716;BME280;73698;51.138;6.950;2024-03-02T05:27:07;99599.81;;;6.68;69.64
83716;BME280;73698;51.138;6.950;2024-03-02T05:29:32;99606.25;;;6.66;69.65
83716;BME280;73698;51.138;6.950;2024-03-02T05:31:58;99607.19;;;6.65;70.53
83716;BME280;73698;51.138;6.950;2024-03-02T05:34:23;99602.38;;;6.57;71.39
83716;BME280;73698;51.138;6.950;2024-03-02T05:36:48;99610.72;;;6.52;70.65
83716;BME280;73698;51.138;6.950;2024-03-02T05:39:14;99614.47;;;6.50;70.16
83716;BME280;73698;51.138;6.950;2024-03-02T05:41:39;99615.13;;;6.53;70.83
83716;BME280;73698;51.138;6.950;2024-03-02T05:44:05;99613.28;;;6.54;70.43
83716;BME280;73698;51.138;6.950;2024-03-02T05:46:30;99613.19;;;6.55;70.41
83716;BME280;73698;51.138;6.950;2024-03-02T05:48:55;99614.88;;;6.56;70.86
83716;BME280;73698;51.138;6.950;2024-03-02T05:51:21;99609.53;;;6.56;70.04
83716;BME280;73698;51.138;6.950;2024-03-02T05:53:46;99609.00;;;6.51;70.45
83716;BME280;73698;51.138;6.950;2024-03-02T05:56:12;99615.53;;;6.47;70.24
83716;BME280;73698;51.138;6.950;2024-03-02T05:58:37;99607.72;;;6.44;70.89
83716;BME280;73698;51.138;6.950;2024-03-02T06:01:03;99605.38;;;6.40;71.17
83716;BME280;73698;51.138;6.950;2024-03-02T06:03:30;99607.91;;;6.41;70.83
83716;BME280;73698;51.138;6.950;2024-03-02T06:05:55;99607.38;;;6.36;71.07
83716;BME280;73698;51.138;6.950;2024-03-02T06:08:20;99613.78;;;6.33;71.56
83716;BME280;73698;51.138;6.950;2024-03-02T06:10:46;99622.97;;;6.29;71.62
83716;BME280;73698;51.138;6.950;2024-03-02T06:13:11;99620.41;;;6.28;71.40
83716;BME280;73698;51.138;6.950;2024-03-02T06:15:37;99621.66;;;6.22;72.31
83716;BME280;73698;51.138;6.950;2024-03-02T06:18:02;99622.63;;;6.21;71.64
83716;BME280;73698;51.138;6.950;2024-03-02T06:20:28;99627.66;;;6.26;71.53
83716;BME280;73698;51.138;6.950;2024-03-02T06:22:56;99622.09;;;6.29;71.23
83716;BME280;73698;51.138;6.950;2024-03-02T06:25:21;99632.06;;;6.27;72.24
83716;BME280;73698;51.138;6.950;2024-03-02T06:27:46;99633.75;;;6.28;71.93
83716;BME280;73698;51.138;6.950;2024-03-02T06:30:12;99632.59;;;6.32;71.69
83716;BME280;73698;51.138;6.950;2024-03-02T06:32:37;99633.63;;;6.29;71.96
83716;BME280;73698;51.138;6.950;2024-03-02T06:35:03;99645.16;;;6.30;72.25
83716;BME280;73698;51.138;6.950;2024-03-02T06:37:30;99658.00;;;6.38;72.08
83716;BME280;73698;51.138;6.950;2024-03-02T06:39:55;99657.25;;;6.35;71.98
83716;BME280;73698;51.138;6.950;2024-03-02T06:42:20;99661.56;;;6.38;72.52
83716;BME280;73698;51.138;6.950;2024-03-02T06:44:46;99663.34;;;6.38;72.60
83716;BME280;73698;51.138;6.950;2024-03-02T06:47:11;99675.63;;;6.40;72.35
83716;BME280;73698;51.138;6.950;2024-03-02T06:49:37;99663.72;;;6.46;71.80
83716;BME280;73698;51.138;6.950;2024-03-02T06:52:02;99668.81;;;6.49;71.97
83716;BME280;73698;51.138;6.950;2024-03-02T06:54:28;99665.22;;;6.50;71.28
83716;BME280;73698;51.138;6.950;2024-03-02T06:56:53;99671.81;;;6.57;71.17
83716;BME280;73698;51.138;6.950;2024-03-02T06:59:18;99678.66;;;6.61;71.22
83716;BME280;73698;51.138;6.950;2024-03-02T07:01:44;99682.84;;;6.65;72.11
83716;BME280;73698;51.138;6.950;2024-03-02T07:04:09;99672.72;;;6.70;71.78
83716;BME280;73698;51.138;6.950;2024-03-02T07:06:35;99675.59;;;6.80;71.81
83716;BME280;73698;51.138;6.950;2024-03-02T07:09:00;99668.97;;;6.85;71.84
83716;BME280;73698;51.138;6.950;2024-03-02T07:11:25;99672.09;;;6.92;70.42
83716;BME280;73698;51.138;6.950;2024-03-02T07:13:51;99682.13;;;7.01;70.58
83716;BME280;73698;51.138;6.950;2024-03-02T07:16:16;99677.88;;;7.12;69.51
83716;BME280;73698;51.138;6.950;2024-03-02T07:18:55;99683.31;;;7.23;69.23
83716;BME280;73698;51.138;6.950;2024-03-02T07:21:22;99687.13;;;7.31;69.39
83716;BME280;73698;51.138;6.950;2024-03-02T07:23:48;99690.13;;;7.40;69.42
83716;BME280;73698;51.138;6.950;2024-03-02T07:26:14;99670.97;;;7.46;68.53
83716;BME280;73698;51.138;6.950;2024-03-02T07:28:41;99679.41;;;7.52;68.81
83716;BME280;73698;51.138;6.950;2024-03-02T07:31:06;99683.25;;;7.61;69.00
83716;BME280;73698;51.138;6.950;2024-03-02T07:33:32;99674.66;;;7.69;68.39
83716;BME280;73698;51.138;6.950;2024-03-02T07:35:59;99674.00;;;7.78;67.67
83716;BME280;73698;51.138;6.950;2024-03-02T07:38:25;99683.06;;;7.88;67.60
83716;BME280;73698;51.138;6.950;2024-03-02T07:40:50;99686.13;;;7.95;67.52
83716;BME280;73698;51.138;6.950;2024-03-02T07:43:17;99689.34;;;8.00;67.73
83716;BME280;73698;51.138;6.950;2024-03-02T07:45:42;99680.13;;;8.04;66.51
83716;BME280;73698;51.138;6.950;2024-03-02T07:48:08;99688.44;;;8.12;67.51
83716;BME280;73698;51.138;6.950;2024-03-02T07:50:33;99693.44;;;8.17;66.68
83716;BME280;73698;51.138;6.950;2024-03-02T07:53:01;99694.06;;;8.20;67.11
83716;BME280;73698;51.138;6.950;2024-03-02T07:55:26;99689.44;;;8.22;66.64
83716;BME280;73698;51.138;6.950;2024-03-02T07:57:51;99690.94;;;8.26;66.32
83716;BME280;73698;51.138;6.950;2024-03-02T08:00:17;99698.09;;;8.26;67.07
83716;BME280;73698;51.138;6.950;2024-03-02T08:02:42;99700.78;;;8.26;66.95
83716;BME280;73698;51.138;6.950;2024-03-02T08:05:08;99713.44;;;8.24;65.72
83716;BME280;73698;51.138;6.950;2024-03-02T08:07:34;99717.81;;;8.25;67.09
83716;BME280;73698;51.138;6.950;2024-03-02T08:09:59;99716.53;;;8.30;67.01
83716;BME280;73698;51.138;6.950;2024-03-02T08:12:25;99716.72;;;8.40;66.10
83716;BME280;73698;51.138;6.950;2024-03-02T08:14:50;99713.22;;;8.51;66.35
83716;BME280;73698;51.138;6.950;2024-03-02T08:17:16;99717.88;;;8.60;66.29
83716;BME280;73698;51.138;6.950;2024-03-02T08:19:42;99721.34;;;8.73;66.40
83716;BME280;73698;51.138;6.950;2024-03-02T08:22:08;99722.47;;;8.82;66.31
83716;BME280;73698;51.138;6.950;2024-03-02T08:24:33;99725.19;;;8.93;66.15
83716;BME280;73698;51.138;6.950;2024-03-02T08:26:59;99723.38;;;9.05;65.79
83716;BME280;73698;51.138;6.950;2024-03-02T08:29:25;99717.81;;;9.19;64.40
83716;BME280;73698;51.138;6.950;2024-03-02T08:31:50;99713.56;;;9.28;64.42
83716;BME280;73698;51.138;6.950;2024-03-02T08:34:16;99724.91;;;9.43;63.62
83716;BME280;73698;51.138;6.950;2024-03-02T08:36:41;99721.38;;;9.53;63.11
83716;BME280;73698;51.138;6.950;2024-03-02T08:39:08;99719.78;;;9.62;63.12
83716;BME280;73698;51.138;6.950;2024-03-02T08:41:46;99712.81;;;9.71;63.38
83716;BME280;73698;51.138;6.950;2024-03-02T08:44:13;99705.97;;;9.78;62.52
83716;BME280;73698;51.138;6.950;2024-03-02T08:46:39;99698.91;;;9.88;62.21
83716;BME280;73698;51.138;6.950;2024-03-02T08:49:05;99710.25;;;9.92;61.98
83716;BME280;73698;51.138;6.950;2024-03-02T08:51:31;99718.78;;;9.97;62.69
83716;BME280;73698;51.138;6.950;2024-03-02T08:53:57;99711.94;;;9.93;61.95
83716;BME280;73698;51.138;6.950;2024-03-02T08:56:23;99713.28;;;9.87;61.92
83716;BME280;73698;51.138;6.950;2024-03-02T08:58:50;99704.75;;;9.82;62.49
83716;BME280;73698;51.138;6.950;2024-03-02T09:01:16;99708.44;;;9.81;62.43
83716;BME280;73698;51.138;6.950;2024-03-02T09:03:42;99719.50;;;9.88;62.54
83716;BME280;73698;51.138;6.950;2024-03-02T09:06:10;99726.69;;;9.98;62.45
83716;BME280;73698;51.138;6.950;2024-03-02T09:08:36;99732.53;;;10.15;62.58
83716;BME280;73698;51.138;6.950;2024-03-02T09:11:02;99728.09;;;10.36;62.54
83716;BME280;73698;51.138;6.950;2024-03-02T09:13:28;99735.63;;;10.54;61.47
83716;BME280;73698;51.138;6.950;2024-03-02T09:15:54;99737.78;;;10.60;61.35
83716;BME280;73698;51.138;6.950;2024-03-02T09:18:19;99724.69;;;10.66;59.85
83716;BME280;73698;51.138;6.950;2024-03-02T09:20:45;99738.34;;;10.74;59.67
83716;BME280;73698;51.138;6.950;2024-03-02T09:23:11;99736.59;;;10.85;61.31
83716;BME280;73698;51.138;6.950;2024-03-02T09:25:36;99731.41;;;10.93;60.32
83716;BME280;73698;51.138;6.950;2024-03-02T09:28:02;99735.94;;;10.92;59.82
83716;BME280;73698;51.138;6.950;2024-03-02T09:30:28;99736.84;;;11.03;61.24
83716;BME280;73698;51.138;6.950;2024-03-02T09:32:53;99746.44;;;11.16;59.89
83716;BME280;73698;51.138;6.950;2024-03-02T09:35:19;99728.06;;;11.21;59.25
83716;BME280;73698;51.138;6.950;2024-03-02T09:37:45;99730.81;;;11.31;60.28
83716;BME280;73698;51.138;6.950;2024-03-02T09:40:11;99718.25;;;11.41;59.37
83716;BME280;73698;51.138;6.950;2024-03-02T09:42:37;99714.22;;;11.57;58.97
83716;BME280;73698;51.138;6.950;2024-03-02T09:45:03;99713.28;;;11.67;59.88
83716;BME280;73698;51.138;6.950;2024-03-02T09:47:29;99720.81;;;11.73;59.18
83716;BME280;73698;51.138;6.950;2024-03-02T09:49:54;99709.47;;;11.70;58.54
83716;BME280;73698;51.138;6.950;2024-03-02T09:52:22;99714.03;;;11.79;57.57
83716;BME280;73698;51.138;6.950;2024-03-02T09:54:47;99712.69;;;11.85;58.94
83716;BME280;73698;51.138;6.950;2024-03-02T09:57:14;99713.94;;;11.90;58.03
83716;BME280;73698;51.138;6.950;2024-03-02T09:59:40;99719.91;;;11.94;57.01
83716;BME280;73698;51.138;6.950;2024-03-02T10:02:05;99715.13;;;11.97;58.30
83716;BME280;73698;51.138;6.950;2024-03-02T10:04:32;99722.19;;;11.98;56.42
83716;BME280;73698;51.138;6.950;2024-03-02T10:07:18;99709.03;;;12.05;56.29
83716;BME280;73698;51.138;6.950;2024-03-02T10:09:45;99707.50;;;12.12;57.24
83716;BME280;73698;51.138;6.950;2024-03-02T10:12:11;99712.88;;;12.12;55.79
83716;BME280;73698;51.138;6.950;2024-03-02T10:14:38;99718.53;;;12.09;55.58
83716;BME280;73698;51.138;6.950;2024-03-02T10:17:05;99712.47;;;12.07;55.67
83716;BME280;73698;51.138;6.950;2024-03-02T10:19:31;99711.88;;;12.13;55.03
83716;BME280;73698;51.138;6.950;2024-03-02T10:21:59;99710.34;;;12.11;53.84
83716;BME280;73698;51.138;6.950;2024-03-02T10:24:24;99716.84;;;12.18;54.67
83716;BME280;73698;51.138;6.950;2024-03-02T10:26:51;99724.81;;;12.29;54.58
83716;BME280;73698;51.138;6.950;2024-03-02T10:29:17;99717.88;;;12.36;56.27
83716;BME280;73698;51.138;6.950;2024-03-02T10:31:44;99719.03;;;12.43;53.95
83716;BME280;73698;51.138;6.950;2024-03-02T10:34:11;99727.13;;;12.43;54.18
83716;BME280;73698;51.138;6.950;2024-03-02T10:36:40;99718.03;;;12.44;54.04
83716;BME280;73698;51.138;6.950;2024-03-02T10:39:07;99720.59;;;12.46;53.46
83716;BME280;73698;51.138;6.950;2024-03-02T10:41:34;99712.97;;;12.61;54.04
83716;BME280;73698;51.138;6.950;2024-03-02T10:44:02;99704.84;;;12.80;55.74
83716;BME280;73698;51.138;6.950;2024-03-02T10:46:29;99700.44;;;12.89;54.89
83716;BME280;73698;51.138;6.950;2024-03-02T10:48:56;99699.84;;;12.95;54.16
83716;BME280;73698;51.138;6.950;2024-03-02T10:51:24;99688.19;;;13.04;53.76
83716;BME280;73698;51.138;6.950;2024-03-02T10:53:49;99675.09;;;13.09;53.69
83716;BME280;73698;51.138;6.950;2024-03-02T10:56:21;99686.19;;;13.06;52.34
83716;BME280;73698;51.138;6.950;2024-03-02T10:58:57;99684.78;;;13.02;51.87
83716;BME280;73698;51.138;6.950;2024-03-02T11:01:26;99693.31;;;13.07;53.49
83716;BME280;73698;51.138;6.950;2024-03-02T11:03:54;99689.00;;;13.14;53.02
83716;BME280;73698;51.138;6.950;2024-03-02T11:06:20;99685.91;;;13.19;53.32
83716;BME280;73698;51.138;6.950;2024-03-02T11:08:49;99679.34;;;13.22;52.92
83716;BME280;73698;51.138;6.950;2024-03-02T11:11:22;99673.69;;;13.25;52.15
83716;BME280;73698;51.138;6.950;2024-03-02T11:13:53;99684.75;;;13.31;52.22
83716;BME280;73698;51.138;6.950;2024-03-02T11:16:33;99675.53;;;13.24;50.27
83716;BME280;73698;51.138;6.950;2024-03-02T11:19:12;99674.25;;;13.28;53.60
83716;BME280;73698;51.138;6.950;2024-03-02T11:21:38;99669.13;;;13.35;53.44
83716;BME280;73698;51.138;6.950;2024-03-02T11:26:49;99669.91;;;13.45;52.10
83716;BME280;73698;51.138;6.950;2024-03-02T11:32:01;99662.25;;;13.40;50.73
83716;BME280;73698;51.138;6.950;2024-03-02T11:34:30;99671.66;;;13.36;51.47
83716;BME280;73698;51.138;6.950;2024-03-02T11:36:56;99673.66;;;13.34;52.76
83716;BME280;73698;51.138;6.950;2024-03-02T11:39:22;99680.75;;;13.35;51.73
83716;BME280;73698;51.138;6.950;2024-03-02T11:41:48;99670.97;;;13.34;51.49
83716;BME280;73698;51.138;6.950;2024-03-02T11:44:14;99674.63;;;13.33;49.51
83716;BME280;73698;51.138;6.950;2024-03-02T11:46:40;99668.00;;;13.28;51.02
83716;BME280;73698;51.138;6.950;2024-03-02T11:49:05;99671.81;;;13.35;51.48
83716;BME280;73698;51.138;6.950;2024-03-02T11:51:33;99659.09;;;13.45;52.08
83716;BME280;73698;51.138;6.950;2024-03-02T11:54:00;99664.09;;;13.50;50.37
83716;BME280;73698;51.138;6.950;2024-03-02T11:56:28;99656.28;;;13.47;51.70
83716;BME280;73698;51.138;6.950;2024-03-02T11:58:56;99647.44;;;13.44;51.21
83716;BME280;73698;51.138;6.950;2024-03-02T12:01:23;99646.59;;;13.44;52.72
83716;BME280;73698;51.138;6.950;2024-03-02T12:03:48;99660.28;;;13.42;52.21
83716;BME280;73698;51.138;6.950;2024-03-02T12:06:14;99655.31;;;13.38;49.62
83716;BME280;73698;51.138;6.950;2024-03-02T12:08:40;99644.34;;;13.49;50.18
83716;BME280;73698;51.138;6.950;2024-03-02T12:11:05;99643.44;;;13.58;50.21
83716;BME280;73698;51.138;6.950;2024-03-02T12:13:32;99648.66;;;13.60;50.60
83716;BME280;73698;51.138;6.950;2024-03-02T12:15:58;99637.63;;;13.53;50.15
83716;BME280;73698;51.138;6.950;2024-03-02T12:18:24;99634.78;;;13.55;50.82
83716;BME280;73698;51.138;6.950;2024-03-02T12:20:50;99633.81;;;13.46;50.91
83716;BME280;73698;51.138;6.950;2024-03-02T12:23:23;99619.56;;;13.54;50.79
83716;BME280;73698;51.138;6.950;2024-03-02T12:25:49;99627.78;;;13.62;50.48
83716;BME280;73698;51.138;6.950;2024-03-02T12:28:15;99618.94;;;13.60;50.79
83716;BME280;73698;51.138;6.950;2024-03-02T12:30:40;99619.41;;;13.55;50.54
83716;BME280;73698;51.138;6.950;2024-03-02T12:33:06;99621.00;;;13.48;50.59
83716;BME280;73698;51.138;6.950;2024-03-02T12:35:31;99619.97;;;13.59;51.30
83716;BME280;73698;51.138;6.950;2024-03-02T12:37:57;99614.75;;;13.48;50.07
83716;BME280;73698;51.138;6.950;2024-03-02T12:40:23;99612.16;;;13.56;51.56
83716;BME280;73698;51.138;6.950;2024-03-02T12:42:50;99610.41;;;13.64;51.07
83716;BME280;73698;51.138;6.950;2024-03-02T12:45:16;99607.66;;;13.74;51.09
83716;BME280;73698;51.138;6.950;2024-03-02T12:47:42;99614.34;;;13.70;50.07
83716;BME280;73698;51.138;6.950;2024-03-02T12:50:08;99617.78;;;13.72;50.61
83716;BME280;73698;51.138;6.950;2024-03-02T12:52:35;99612.84;;;13.85;50.24
83716;BME280;73698;51.138;6.950;2024-03-02T12:55:02;99603.53;;;13.70;49.53
83716;BME280;73698;51.138;6.950;2024-03-02T12:57:30;99596.50;;;13.59;49.50
83716;BME280;73698;51.138;6.950;2024-03-02T13:00:04;99594.63;;;13.60;49.57
83716;BME280;73698;51.138;6.950;2024-03-02T13:02:40;99598.50;;;13.57;50.01
83716;BME280;73698;51.138;6.950;2024-03-02T13:05:06;99593.41;;;13.54;50.80
83716;BME280;73698;51.138;6.950;2024-03-02T13:07:36;99599.09;;;13.51;51.16
83716;BME280;73698;51.138;6.950;2024-03-02T13:10:02;99591.75;;;13.43;50.15
83716;BME280;73698;51.138;6.950;2024-03-02T13:12:30;99596.75;;;13.38;50.64